createdAt,value
2018-09-14T00:00:43.644Z,17.80
2018-09-14T00:03:11.921Z,17.80
2018-09-14T00:05:40.196Z,17.80
2018-09-14T00:08:08.465Z,17.80
2018-09-14T00:10:36.747Z,17.80
2018-09-14T00:13:05.037Z,17.80
2018-09-14T00:15:33.304Z,17.80
2018-09-14T00:18:01.584Z,17.80
2018-09-14T00:20:29.957Z,17.70
2018-09-14T00:22:58.222Z,17.70
2018-09-14T00:25:26.519Z,17.70
2018-09-14T00:27:54.797Z,17.70
2018-09-14T00:30:23.084Z,17.60
2018-09-14T00:32:51.347Z,17.50
2018-09-14T00:35:19.637Z,17.50
2018-09-14T00:37:47.912Z,17.50
2018-09-14T00:40:16.188Z,17.40
2018-09-14T00:42:44.464Z,17.40
2018-09-14T00:45:12.807Z,17.40
2018-09-14T00:47:41.093Z,17.40
2018-09-14T00:50:09.385Z,17.30
2018-09-14T00:52:37.657Z,17.30
2018-09-14T00:55:06.013Z,17.30
2018-09-14T00:57:34.305Z,17.20
2018-09-14T01:00:02.574Z,17.20
2018-09-14T01:02:30.901Z,17.20
2018-09-14T01:04:59.200Z,17.00
2018-09-14T01:07:27.469Z,17.00
2018-09-14T01:09:55.760Z,17.00
2018-09-14T01:12:24.046Z,17.00
2018-09-14T01:14:52.329Z,17.00
2018-09-14T01:17:20.654Z,17.00
2018-09-14T01:19:48.910Z,17.00
2018-09-14T01:22:17.192Z,17.00
2018-09-14T01:24:45.455Z,17.00
2018-09-14T01:27:13.754Z,16.90
2018-09-14T01:29:42.020Z,16.90
2018-09-14T01:32:10.300Z,16.90
2018-09-14T01:34:38.572Z,16.80
2018-09-14T01:37:06.846Z,16.70
2018-09-14T01:39:35.124Z,16.70
2018-09-14T01:42:03.445Z,16.60
2018-09-14T01:44:31.720Z,16.60
2018-09-14T01:47:00.007Z,16.50
2018-09-14T01:49:28.297Z,16.50
2018-09-14T01:51:56.560Z,16.50
2018-09-14T01:54:24.849Z,16.40
2018-09-14T01:56:53.133Z,16.30
2018-09-14T01:59:21.461Z,16.30
2018-09-14T02:01:49.720Z,16.30
2018-09-14T02:04:18.005Z,16.30
2018-09-14T02:06:46.313Z,16.30
2018-09-14T02:09:14.597Z,16.30
2018-09-14T02:11:42.884Z,16.10
2018-09-14T02:14:11.156Z,16.10
2018-09-14T02:16:39.454Z,16.10
2018-09-14T02:19:07.752Z,16.00
2018-09-14T02:21:36.033Z,15.90
2018-09-14T02:24:04.307Z,15.90
2018-09-14T02:26:32.588Z,15.90
2018-09-14T02:29:00.873Z,15.90
2018-09-14T02:31:29.136Z,15.80
2018-09-14T02:33:57.429Z,15.80
2018-09-14T02:36:25.698Z,15.70
2018-09-14T02:38:53.989Z,15.80
2018-09-14T02:41:22.265Z,15.80
2018-09-14T02:43:50.546Z,15.80
2018-09-14T02:46:18.801Z,15.70
2018-09-14T02:48:47.092Z,15.70
2018-09-14T02:51:15.366Z,15.60
2018-09-14T02:53:43.673Z,15.50
2018-09-14T02:56:11.963Z,15.40
2018-09-14T02:58:40.231Z,15.30
2018-09-14T03:01:08.501Z,15.30
2018-09-14T03:03:36.788Z,15.30
2018-09-14T03:06:05.061Z,15.30
2018-09-14T03:08:33.357Z,15.30
2018-09-14T03:11:01.649Z,15.30
2018-09-14T03:13:29.961Z,15.20
2018-09-14T03:15:58.201Z,15.10
2018-09-14T03:18:26.473Z,15.10
2018-09-14T03:20:55.581Z,15.10
2018-09-14T03:23:23.853Z,15.10
2018-09-14T03:25:52.129Z,15.00
2018-09-14T03:28:20.404Z,15.00
2018-09-14T03:30:48.682Z,15.10
2018-09-14T03:33:16.957Z,15.10
2018-09-14T03:35:45.242Z,15.20
2018-09-14T03:38:13.529Z,15.20
2018-09-14T03:40:41.820Z,15.20
2018-09-14T03:43:10.125Z,15.20
2018-09-14T03:45:38.407Z,15.20
2018-09-14T03:48:06.758Z,15.20
2018-09-14T03:50:35.068Z,15.20
2018-09-14T03:53:03.389Z,15.20
2018-09-14T03:55:31.673Z,15.20
2018-09-14T03:57:59.939Z,15.20
2018-09-14T04:00:28.229Z,15.10
2018-09-14T04:02:56.496Z,15.00
2018-09-14T04:05:24.768Z,15.00
2018-09-14T04:07:53.057Z,15.00
2018-09-14T04:10:21.312Z,15.00
2018-09-14T04:12:49.591Z,15.10
2018-09-14T04:15:17.869Z,15.10
2018-09-14T04:17:46.137Z,15.10
2018-09-14T04:20:14.403Z,15.10
2018-09-14T04:22:42.684Z,15.00
2018-09-14T04:25:10.967Z,15.00
2018-09-14T04:27:39.288Z,15.00
2018-09-14T04:30:07.576Z,14.90
2018-09-14T04:32:35.849Z,14.90
2018-09-14T04:35:04.149Z,14.90
2018-09-14T04:37:32.432Z,14.90
2018-09-14T04:40:00.696Z,14.80
2018-09-14T04:42:28.995Z,14.90
2018-09-14T04:44:57.242Z,14.90
2018-09-14T04:47:25.512Z,14.80
2018-09-14T04:49:53.812Z,14.80
2018-09-14T04:52:22.065Z,14.80
2018-09-14T04:54:50.383Z,14.80
2018-09-14T04:57:18.685Z,14.80
2018-09-14T04:59:46.914Z,14.80
2018-09-14T05:02:15.216Z,14.80
2018-09-14T05:04:43.493Z,14.90
2018-09-14T05:07:11.772Z,14.90
2018-09-14T05:09:40.058Z,14.90
2018-09-14T05:12:08.355Z,14.90
2018-09-14T05:14:36.628Z,15.00
2018-09-14T05:17:04.936Z,15.00
2018-09-14T05:19:33.217Z,15.00
2018-09-14T05:22:01.496Z,15.10
2018-09-14T05:24:29.892Z,15.10
2018-09-14T05:26:58.073Z,15.20
2018-09-14T05:29:26.358Z,15.20
2018-09-14T05:31:54.633Z,15.20
2018-09-14T05:34:23.144Z,15.20
2018-09-14T05:36:51.544Z,15.30
2018-09-14T05:39:19.825Z,15.30
2018-09-14T05:41:48.092Z,15.30
2018-09-14T05:44:16.377Z,15.30
2018-09-14T05:46:44.654Z,15.40
2018-09-14T05:49:12.954Z,15.40
2018-09-14T05:51:41.250Z,15.50
2018-09-14T05:54:09.525Z,15.50
2018-09-14T05:56:37.815Z,15.60
2018-09-14T05:59:06.193Z,15.60
2018-09-14T06:01:34.488Z,15.60
2018-09-14T06:04:02.756Z,15.70
2018-09-14T06:06:31.041Z,15.70
2018-09-14T06:08:59.322Z,15.70
2018-09-14T06:11:27.612Z,15.80
2018-09-14T06:13:55.953Z,15.80
2018-09-14T06:16:24.180Z,15.80
2018-09-14T06:18:52.456Z,15.80
2018-09-14T06:21:20.844Z,15.80
2018-09-14T06:23:49.116Z,15.80
2018-09-14T06:26:17.388Z,15.80
2018-09-14T06:28:45.700Z,15.90
2018-09-14T06:31:13.968Z,15.90
2018-09-14T06:33:42.241Z,15.90
2018-09-14T06:36:10.521Z,15.90
2018-09-14T06:38:38.777Z,15.90
2018-09-14T06:41:07.062Z,16.00
2018-09-14T06:43:35.335Z,16.00
2018-09-14T06:46:03.832Z,16.00
2018-09-14T06:48:32.112Z,16.00
2018-09-14T06:51:00.421Z,16.00
2018-09-14T06:53:28.777Z,16.00
2018-09-14T06:55:56.988Z,16.10
2018-09-14T06:58:25.560Z,16.10
2018-09-14T07:00:53.837Z,16.10
2018-09-14T07:03:22.117Z,16.10
2018-09-14T07:05:50.403Z,16.10
2018-09-14T07:08:18.693Z,16.20
2018-09-14T07:10:46.973Z,16.30
2018-09-14T07:13:15.264Z,16.30
2018-09-14T07:15:43.520Z,16.30
2018-09-14T07:18:11.816Z,16.40
2018-09-14T07:20:40.105Z,16.40
2018-09-14T07:23:08.821Z,16.50
2018-09-14T07:25:37.116Z,16.40
2018-09-14T07:28:05.385Z,16.40
2018-09-14T07:30:33.682Z,16.40
2018-09-14T07:33:01.972Z,16.40
2018-09-14T07:35:30.290Z,16.50
2018-09-14T07:37:58.573Z,16.50
2018-09-14T07:40:26.836Z,16.50
2018-09-14T07:42:55.105Z,16.50
2018-09-14T07:45:23.385Z,16.60
2018-09-14T07:47:51.661Z,16.60
2018-09-14T07:50:19.932Z,16.60
2018-09-14T07:52:48.229Z,16.50
2018-09-14T07:55:16.526Z,16.50
2018-09-14T07:57:44.788Z,16.50
2018-09-14T08:00:13.056Z,16.50
2018-09-14T08:02:41.329Z,16.50
2018-09-14T08:05:09.596Z,16.50
2018-09-14T08:07:37.857Z,16.50
2018-09-14T08:10:06.197Z,16.60
2018-09-14T08:12:34.470Z,16.60
2018-09-14T08:15:02.741Z,16.70
2018-09-14T08:17:31.014Z,16.80
2018-09-14T08:19:59.349Z,16.90
2018-09-14T08:22:27.681Z,16.90
2018-09-14T08:24:55.957Z,17.00
2018-09-14T08:27:24.267Z,17.10
2018-09-14T08:29:52.548Z,17.10
2018-09-14T08:32:20.849Z,17.10
2018-09-14T08:34:49.081Z,17.20
2018-09-14T08:37:17.369Z,17.30
2018-09-14T08:39:45.646Z,17.50
2018-09-14T08:42:13.904Z,17.60
2018-09-14T08:44:42.159Z,17.70
2018-09-14T08:47:10.422Z,17.90
2018-09-14T08:49:38.722Z,17.90
2018-09-14T08:52:07.117Z,17.90
2018-09-14T08:54:35.409Z,18.00
2018-09-14T08:57:03.728Z,18.00
2018-09-14T08:59:32.021Z,18.10
2018-09-14T09:02:00.276Z,18.20
2018-09-14T09:04:28.544Z,18.40
2018-09-14T09:06:56.833Z,18.50
2018-09-14T09:09:25.121Z,18.50
2018-09-14T09:11:53.380Z,18.70
2018-09-14T09:14:21.661Z,18.70
2018-09-14T09:16:49.958Z,18.80
2018-09-14T09:19:18.273Z,18.80
2018-09-14T09:21:46.497Z,18.90
2018-09-14T09:24:14.757Z,19.00
2018-09-14T09:26:43.045Z,19.20
2018-09-14T09:29:11.338Z,19.30
2018-09-14T09:31:39.622Z,19.30
2018-09-14T09:34:07.945Z,19.20
2018-09-14T09:36:36.202Z,19.20
2018-09-14T09:39:07.659Z,19.20
2018-09-14T09:41:35.929Z,19.40
2018-09-14T09:44:04.263Z,19.40
2018-09-14T09:46:32.497Z,19.50
2018-09-14T09:49:00.766Z,19.60
2018-09-14T09:51:29.040Z,19.70
2018-09-14T09:53:57.316Z,20.00
2018-09-14T09:56:25.590Z,20.00
2018-09-14T09:58:53.858Z,20.00
2018-09-14T10:01:27.553Z,20.00
2018-09-14T10:04:01.271Z,20.10
2018-09-14T10:06:29.541Z,20.10
2018-09-14T10:08:57.964Z,19.90
2018-09-14T10:11:26.980Z,19.80
2018-09-14T10:13:55.376Z,19.80
2018-09-14T10:16:23.749Z,19.80
2018-09-14T10:18:52.072Z,19.80
2018-09-14T10:21:20.503Z,19.90
2018-09-14T10:23:48.766Z,19.90
2018-09-14T10:26:17.050Z,20.30
2018-09-14T10:28:45.384Z,20.40
2018-09-14T10:31:13.592Z,20.50
2018-09-14T10:33:41.865Z,20.60
2018-09-14T10:36:10.140Z,20.80
2018-09-14T10:38:38.404Z,21.00
2018-09-14T10:41:06.726Z,21.30
2018-09-14T10:43:34.984Z,21.30
2018-09-14T10:46:03.267Z,21.20
2018-09-14T10:48:31.534Z,20.90
2018-09-14T10:50:59.826Z,20.50
2018-09-14T10:53:28.104Z,20.50
2018-09-14T10:55:56.377Z,20.50
2018-09-14T10:58:24.669Z,20.30
2018-09-14T11:00:53.005Z,20.10
2018-09-14T11:03:21.248Z,20.00
2018-09-14T11:05:50.360Z,20.00
2018-09-14T11:08:18.632Z,20.00
2018-09-14T11:10:46.901Z,19.90
2018-09-14T11:13:15.213Z,19.80
2018-09-14T11:15:43.469Z,19.80
2018-09-14T11:18:11.733Z,19.70
2018-09-14T11:20:40.071Z,19.70
2018-09-14T11:23:08.288Z,19.80
2018-09-14T11:25:36.550Z,19.80
2018-09-14T11:28:04.930Z,19.70
2018-09-14T11:30:33.137Z,19.70
2018-09-14T11:33:01.413Z,19.60
2018-09-14T11:35:29.681Z,19.70
2018-09-14T11:37:58.074Z,19.60
2018-09-14T11:40:26.249Z,19.60
2018-09-14T11:42:54.524Z,19.60
2018-09-14T11:45:22.828Z,19.60
2018-09-14T11:47:51.870Z,19.60
2018-09-14T11:50:20.146Z,19.60
2018-09-14T11:52:48.476Z,19.90
2018-09-14T11:55:16.736Z,20.20
2018-09-14T11:57:45.005Z,20.40
2018-09-14T12:00:13.321Z,20.40
2018-09-14T12:02:41.593Z,20.40
2018-09-14T12:05:09.876Z,20.40
2018-09-14T12:07:39.145Z,20.60
2018-09-14T12:10:08.461Z,20.50
2018-09-14T12:12:36.721Z,20.50
2018-09-14T12:15:05.112Z,20.50
2018-09-14T12:17:33.384Z,20.70
2018-09-14T12:20:01.769Z,20.80
2018-09-14T12:22:30.057Z,20.80
2018-09-14T12:24:58.349Z,20.80
2018-09-14T12:27:26.641Z,20.80
2018-09-14T12:29:54.913Z,21.00
2018-09-14T12:32:23.192Z,20.90
2018-09-14T12:34:51.538Z,20.60
2018-09-14T12:37:19.897Z,20.70
2018-09-14T12:39:48.186Z,20.70
2018-09-14T12:42:16.465Z,20.60
2018-09-14T12:44:44.794Z,20.60
2018-09-14T12:47:13.056Z,20.70
2018-09-14T12:49:41.315Z,20.80
2018-09-14T12:52:09.585Z,20.70
2018-09-14T12:54:37.860Z,20.70
2018-09-14T12:57:06.145Z,20.80
2018-09-14T12:59:34.426Z,20.80
2018-09-14T13:02:02.713Z,20.90
2018-09-14T13:04:31.045Z,20.90
2018-09-14T13:06:59.324Z,20.90
2018-09-14T13:09:27.598Z,21.00
2018-09-14T13:11:55.865Z,21.10
2018-09-14T13:14:24.563Z,21.10
2018-09-14T13:16:52.820Z,21.20
2018-09-14T13:19:21.410Z,21.40
2018-09-14T13:21:49.681Z,21.70
2018-09-14T13:24:17.958Z,21.90
2018-09-14T13:26:46.217Z,21.90
2018-09-14T13:29:14.475Z,21.60
2018-09-14T13:31:42.754Z,21.70
2018-09-14T13:34:11.051Z,21.60
2018-09-14T13:36:39.316Z,21.60
2018-09-14T13:39:08.445Z,21.80
2018-09-14T13:41:36.719Z,22.00
2018-09-14T13:44:04.979Z,21.90
2018-09-14T13:46:33.236Z,22.00
2018-09-14T13:49:01.502Z,22.10
2018-09-14T13:51:29.764Z,22.00
2018-09-14T13:53:58.056Z,22.00
2018-09-14T13:56:26.310Z,21.80
2018-09-14T13:58:54.608Z,21.80
2018-09-14T14:01:23.112Z,21.70
2018-09-14T14:03:51.376Z,21.60
2018-09-14T14:06:19.661Z,21.60
2018-09-14T14:08:47.932Z,21.80
2018-09-14T14:11:16.198Z,22.00
2018-09-14T14:13:44.454Z,21.80
2018-09-14T14:16:12.728Z,21.70
2018-09-14T14:18:41.001Z,21.70
2018-09-14T14:21:09.298Z,21.50
2018-09-14T14:23:37.529Z,21.40
2018-09-14T14:26:05.796Z,21.40
2018-09-14T14:28:34.073Z,21.30
2018-09-14T14:31:02.338Z,21.30
2018-09-14T14:33:30.624Z,21.30
2018-09-14T14:35:58.900Z,21.50
2018-09-14T14:38:27.149Z,21.50
2018-09-14T14:40:55.430Z,21.50
2018-09-14T14:43:23.729Z,21.50
2018-09-14T14:45:52.023Z,21.70
2018-09-14T14:48:20.304Z,21.70
2018-09-14T14:50:48.577Z,21.50
2018-09-14T14:53:16.845Z,21.40
2018-09-14T14:55:45.114Z,21.30
2018-09-14T14:58:13.386Z,21.50
2018-09-14T15:00:41.650Z,21.50
2018-09-14T15:03:09.938Z,21.30
2018-09-14T15:05:38.209Z,21.40
2018-09-14T15:08:06.498Z,21.40
2018-09-14T15:10:34.778Z,21.30
2018-09-14T15:13:03.222Z,21.20
2018-09-14T15:15:31.520Z,21.10
2018-09-14T15:17:59.816Z,21.00
2018-09-14T15:20:28.406Z,21.00
2018-09-14T15:22:56.763Z,21.10
2018-09-14T15:25:25.061Z,21.10
2018-09-14T15:27:53.950Z,21.10
2018-09-14T15:30:22.268Z,21.20
2018-09-14T15:32:50.571Z,21.20
2018-09-14T15:35:18.849Z,21.20
2018-09-14T15:37:48.109Z,21.30
2018-09-14T15:40:16.544Z,21.30
2018-09-14T15:42:44.869Z,21.20
2018-09-14T15:45:13.140Z,21.20
2018-09-14T15:47:41.418Z,21.10
2018-09-14T15:50:09.708Z,20.90
2018-09-14T15:52:37.984Z,20.70
2018-09-14T15:55:06.277Z,20.60
2018-09-14T15:57:34.565Z,20.60
2018-09-14T16:00:02.865Z,20.40
2018-09-14T16:02:31.706Z,20.40
2018-09-14T16:04:59.978Z,20.20
2018-09-14T16:07:28.265Z,20.20
2018-09-14T16:09:56.528Z,20.20
2018-09-14T16:12:24.840Z,20.20
2018-09-14T16:14:53.121Z,20.20
2018-09-14T16:17:21.407Z,20.20
2018-09-14T16:19:49.832Z,20.10
2018-09-14T16:22:18.116Z,20.10
2018-09-14T16:24:46.396Z,20.00
2018-09-14T16:27:14.661Z,20.00
2018-09-14T16:29:42.944Z,19.90
2018-09-14T16:32:11.221Z,19.90
2018-09-14T16:34:39.506Z,19.80
2018-09-14T16:37:07.798Z,19.70
2018-09-14T16:39:36.077Z,19.70
2018-09-14T16:42:04.337Z,19.60
2018-09-14T16:44:32.608Z,19.60
2018-09-14T16:47:00.890Z,19.40
2018-09-14T16:49:29.150Z,19.40
2018-09-14T16:51:57.587Z,19.30
2018-09-14T16:54:25.870Z,19.20
2018-09-14T16:56:54.143Z,19.20
2018-09-14T16:59:22.433Z,19.10
2018-09-14T17:01:50.710Z,19.10
2018-09-14T17:04:18.981Z,19.00
2018-09-14T17:06:47.329Z,18.90
2018-09-14T17:09:15.596Z,18.80
2018-09-14T17:11:43.916Z,18.70
2018-09-14T17:14:12.250Z,18.60
2018-09-14T17:16:40.540Z,18.40
2018-09-14T17:19:08.834Z,18.30
2018-09-14T17:21:37.186Z,18.20
2018-09-14T17:24:05.409Z,18.20
2018-09-14T17:26:33.693Z,18.20
2018-09-14T17:29:02.022Z,18.00
2018-09-14T17:31:30.513Z,17.90
2018-09-14T17:33:58.780Z,17.90
2018-09-14T17:36:27.077Z,17.90
2018-09-14T17:38:55.368Z,17.80
2018-09-14T17:41:23.649Z,17.80
2018-09-14T17:43:51.914Z,17.60
2018-09-14T17:46:20.192Z,17.50
2018-09-14T17:48:48.489Z,17.40
2018-09-14T17:51:16.763Z,17.40
2018-09-14T17:53:45.045Z,17.40
2018-09-14T17:56:13.336Z,17.30
2018-09-14T17:58:41.612Z,17.30
2018-09-14T18:01:09.885Z,17.30
2018-09-14T18:03:38.168Z,17.20
2018-09-14T18:06:06.469Z,17.10
2018-09-14T18:08:34.747Z,17.10
2018-09-14T18:11:03.026Z,17.00
2018-09-14T18:13:31.292Z,17.00
2018-09-14T18:15:59.561Z,17.00
2018-09-14T18:18:27.917Z,17.00
2018-09-14T18:20:56.216Z,17.00
2018-09-14T18:23:24.501Z,17.00
2018-09-14T18:25:52.785Z,17.10
2018-09-14T18:28:21.059Z,17.10
2018-09-14T18:30:49.330Z,17.10
2018-09-14T18:33:17.638Z,17.20
2018-09-14T18:35:45.950Z,17.30
2018-09-14T18:38:14.172Z,17.30
2018-09-14T18:40:42.469Z,17.20
2018-09-14T18:43:10.753Z,17.10
2018-09-14T18:45:39.061Z,17.10
2018-09-14T18:48:07.343Z,17.00
2018-09-14T18:50:35.629Z,17.00
2018-09-14T18:53:03.913Z,17.00
2018-09-14T18:55:32.193Z,17.00
2018-09-14T18:58:00.473Z,16.80
2018-09-14T19:00:29.076Z,16.70
2018-09-14T19:02:57.360Z,16.70
2018-09-14T19:05:25.678Z,16.60
2018-09-14T19:07:53.945Z,16.60
2018-09-14T19:10:22.232Z,16.60
2018-09-14T19:12:50.542Z,16.60
2018-09-14T19:15:18.824Z,16.60
2018-09-14T19:17:47.105Z,16.60
2018-09-14T19:20:15.395Z,16.70
2018-09-14T19:22:43.666Z,16.70
2018-09-14T19:25:11.937Z,16.80
2018-09-14T19:27:40.241Z,16.80
2018-09-14T19:30:08.548Z,16.80
2018-09-14T19:32:36.830Z,16.90
2018-09-14T19:35:05.168Z,16.90
2018-09-14T19:37:33.453Z,16.90
2018-09-14T19:40:01.732Z,16.90
2018-09-14T19:42:30.008Z,17.00
2018-09-14T19:44:58.316Z,17.00
2018-09-14T19:47:26.615Z,17.00
2018-09-14T19:49:54.913Z,16.90
2018-09-14T19:52:23.174Z,16.90
2018-09-14T19:54:51.465Z,16.90
2018-09-14T19:57:19.777Z,16.90
2018-09-14T19:59:48.021Z,16.80
2018-09-14T20:02:16.284Z,16.70
2018-09-14T20:04:44.560Z,16.60
2018-09-14T20:07:12.838Z,16.60
2018-09-14T20:09:41.139Z,16.50
2018-09-14T20:12:09.512Z,16.50
2018-09-14T20:14:37.798Z,16.50
2018-09-14T20:17:06.079Z,16.50
2018-09-14T20:19:34.362Z,16.40
2018-09-14T20:22:02.738Z,16.40
2018-09-14T20:24:31.014Z,16.30
2018-09-14T20:26:59.298Z,16.30
2018-09-14T20:29:27.588Z,16.20
2018-09-14T20:31:55.860Z,16.20
2018-09-14T20:34:24.137Z,16.20
2018-09-14T20:36:52.416Z,16.20
2018-09-14T20:39:20.713Z,16.20
2018-09-14T20:41:48.993Z,16.10
2018-09-14T20:44:17.328Z,16.00
2018-09-14T20:46:45.606Z,16.00
2018-09-14T20:49:13.900Z,15.90
2018-09-14T20:51:42.248Z,15.90
2018-09-14T20:54:10.481Z,16.00
2018-09-14T20:56:38.760Z,15.90
2018-09-14T20:59:07.042Z,15.90
2018-09-14T21:01:35.321Z,15.80
2018-09-14T21:04:03.731Z,15.80
2018-09-14T21:06:31.944Z,15.70
2018-09-14T21:09:00.216Z,15.70
2018-09-14T21:11:28.492Z,15.80
2018-09-14T21:13:56.790Z,15.70
2018-09-14T21:16:25.077Z,15.70
2018-09-14T21:18:53.349Z,15.70
2018-09-14T21:21:21.620Z,15.60
2018-09-14T21:23:49.887Z,15.60
2018-09-14T21:26:18.161Z,15.60
2018-09-14T21:28:46.432Z,15.60
2018-09-14T21:31:14.700Z,15.60
2018-09-14T21:33:43.024Z,15.60
2018-09-14T21:36:11.280Z,15.60
2018-09-14T21:38:39.551Z,15.60
2018-09-14T21:41:07.815Z,15.50
2018-09-14T21:43:36.101Z,15.50
2018-09-14T21:46:04.382Z,15.50
2018-09-14T21:48:32.683Z,15.50
2018-09-14T21:51:00.967Z,15.40
2018-09-14T21:53:29.241Z,15.40
2018-09-14T21:55:57.524Z,15.40
2018-09-14T21:58:25.799Z,15.40
2018-09-14T22:00:59.385Z,15.30
2018-09-14T22:03:27.718Z,15.30
2018-09-14T22:05:55.995Z,15.30
2018-09-14T22:08:24.328Z,15.20
2018-09-14T22:10:52.608Z,15.20
2018-09-14T22:13:21.005Z,15.20
2018-09-14T22:15:49.528Z,15.20
2018-09-14T22:18:17.833Z,15.20
2018-09-14T22:20:46.100Z,15.20
2018-09-14T22:23:14.377Z,15.10
2018-09-14T22:25:42.648Z,15.10
2018-09-14T22:28:10.922Z,15.10
2018-09-14T22:30:39.208Z,15.10
2018-09-14T22:33:07.496Z,15.00
2018-09-14T22:35:35.764Z,15.00
2018-09-14T22:38:04.068Z,15.00
2018-09-14T22:40:32.344Z,15.00
2018-09-14T22:43:00.654Z,15.10
2018-09-14T22:45:28.981Z,15.10
2018-09-14T22:47:57.264Z,15.20
2018-09-14T22:50:25.532Z,15.20
2018-09-14T22:52:53.836Z,15.20
2018-09-14T22:55:22.118Z,15.20
2018-09-14T22:57:50.392Z,15.20
2018-09-14T23:00:24.050Z,15.20
2018-09-14T23:02:52.353Z,15.10
2018-09-14T23:05:20.622Z,15.10
2018-09-14T23:07:48.925Z,15.00
2018-09-14T23:10:17.200Z,15.10
2018-09-14T23:12:45.480Z,15.10
2018-09-14T23:15:13.772Z,15.20
2018-09-14T23:17:42.052Z,15.20
2018-09-14T23:20:10.349Z,15.20
2018-09-14T23:22:38.620Z,15.10
2018-09-14T23:25:07.024Z,15.10
2018-09-14T23:27:35.308Z,15.20
2018-09-14T23:30:03.637Z,15.20
2018-09-14T23:32:31.912Z,15.20
2018-09-14T23:35:00.196Z,15.20
2018-09-14T23:37:28.474Z,15.30
2018-09-14T23:39:56.747Z,15.30
2018-09-14T23:42:25.032Z,15.30
2018-09-14T23:44:53.306Z,15.40
2018-09-14T23:47:21.597Z,15.40
2018-09-14T23:49:49.917Z,15.40
2018-09-14T23:52:18.199Z,15.40
2018-09-14T23:54:46.697Z,15.50
2018-09-14T23:57:14.998Z,15.50
2018-09-14T23:59:43.286Z,15.50
